• Join FlightAware (Why Join?)
  • Login
  • US Flag 
02:59AM EDT


 

Airport Tracker/Info


-or-


 

Live Flight TrackerFlight Track Log ✈ DAL1981 ✈ 10-Jun-2013 ✈ KSMF - KMSP

Flight Track Log - Related Links

Times and Time Zones

All times are in EDT time to prevent confusion due to time zone crossing. See the DAL1981 flight status page for this flight to view local times or setup timezone preferences in your user account.

Time Position Orientation Groundspeed Altitude Reporting Facility
EDT Latitude Longitude Course Direction KTS MPH feet Rate Location/Type
03:53PM 38.6667 -121.5500 78° East 177 204 1,900  Level Northern Cal TRACON
03:54PM 38.6500 -121.4667 104° East 257 296 3,300 2,160 Climbing Northern Cal TRACON
03:55PM 38.4989 -121.2413 80° East  Level FlightAware Approximate
03:56PM 38.5375 -121.0794 76° East  Level FlightAware Approximate
03:56PM 38.6139 -121.2900 105° East 287 330 8,200  Level Oakland Center
03:57PM 38.5672 -120.9138 78° East  Level FlightAware Approximate
03:57PM 38.5914 -121.1847 105° East 308 354 10,500  Level Oakland Center
03:58PM 38.5949 -120.7477 78° East  Level FlightAware Approximate
03:58PM 38.5706 -121.0856 105° East 314 361 12,600  Level Oakland Center
03:59PM 38.5739 -120.9686 88° East 333 383 15,100 2,340 Climbing Oakland Center
04:00PM 38.5817 -120.8539 85° East 325 374 17,400 1,500 Climbing Oakland Center
04:01PM 38.5733 -120.7289 95° East 349 402 18,200 1,020 Climbing Oakland Center
04:02PM 38.5675 -120.5572 92° East 400 460 19,600 1,500 Climbing Oakland Center
04:03PM 38.5694 -120.4089 89° East 416 479 21,300 1,860 Climbing Oakland Center
04:04PM 38.6175 -120.2761 65° Northeast 407 468 23,500 2,040 Climbing Oakland Center
04:05PM 38.6636 -120.1486 65° Northeast 397 457 25,600 1,560 Climbing Oakland Center
04:06PM 38.7111 -120.0233 64° Northeast 393 452 26,800 900 Climbing Oakland Center
04:07PM 38.7572 -119.8933 66° East 400 460 27,500 540 Climbing Oakland Center
04:08PM 38.8072 -119.7536 65° Northeast 422 486 28,000 480 Climbing Oakland Center
04:09PM 38.8597 -119.6131 64° Northeast 436 502 28,600 1,020 Climbing Oakland Center
04:10PM 38.9100 -119.4706 66° East 438 504 30,200 1,260 Climbing Oakland Center
04:11PM 38.9608 -119.3317 65° Northeast 431 496 31,200 840 Climbing Oakland Center
04:12PM 39.0106 -119.1914 65° Northeast 432 497 32,000 600 Climbing Oakland Center
04:13PM 39.0717 -119.0239 65° Northeast 434 499 32,500 540 Climbing Oakland Center
04:14PM 39.1269 -118.8831 63° Northeast 443 510 33,200 360 Climbing Oakland Center
04:16PM 39.2369 -118.5939 64° Northeast 462 532 33,700 300 Climbing Salt Lake Center
04:17PM 39.3028 -118.4261 63° Northeast 464 534 34,200 600 Climbing Oakland Center
04:18PM 39.3508 -118.2997 64° Northeast 463 533 35,000 360 Climbing Oakland Center
04:19PM 39.4075 -118.1508 64° Northeast 464 534 35,000  Level Oakland Center
04:20PM 39.4758 -117.9678 64° Northeast 471 542 35,000  Level Oakland Center
04:21PM 39.5333 -117.8136 64° Northeast 477 549 35,000  Level Oakland Center
04:22PM 39.5900 -117.6611 64° Northeast 472 543 35,000  Level Oakland Center
04:23PM 39.6467 -117.5075 64° Northeast 474 545 35,000  Level Oakland Center
04:25PM 39.7039 -117.3550 64° Northeast 475 547 35,000  Level Oakland Center
04:26PM 39.7572 -117.2025 65° Northeast 481 554 35,000  Level Oakland Center
04:27PM 39.8206 -117.0281 65° Northeast 481 554 35,000  Level Oakland Center
04:27PM 39.8206 -117.0281 65° Northeast 479 551 35,000  Level Salt Lake Center
04:28PM 39.8753 -116.8769 65° Northeast 482 555 35,000  Level Salt Lake Center
04:30PM 39.9922 -116.5500 65° Northeast 485 558 35,000  Level Oakland Center
04:31PM 40.0467 -116.4006 65° Northeast 481 554 35,000  Level Oakland Center
04:32PM 40.1081 -116.2261 65° Northeast 475 547 35,000  Level Salt Lake Center
04:33PM 40.1661 -116.0544 66° East 467 537 35,000  Level Salt Lake Center
04:34PM 40.2017 -115.9064 73° East 452 520 35,000  Level Salt Lake Center
04:35PM 40.2481 -115.7300 71° East 461 531 35,000  Level Salt Lake Center
04:36PM 40.2881 -115.5761 71° East 466 536 35,000  Level Salt Lake Center
04:37PM 40.3267 -115.4214 72° East 466 536 35,000  Level Salt Lake Center
04:38PM 40.3714 -115.2444 72° East 460 529 35,000  Level Salt Lake Center
04:39PM 40.4067 -115.0914 73° East 458 527 35,000  Level Salt Lake Center
04:40PM 40.4517 -114.9136 72° East 460 529 35,000  Level Salt Lake Center
04:41PM 40.4864 -114.7692 72° East 458 527 35,000  Level Salt Lake Center
04:42PM 40.5314 -114.5783 73° East 458 527 35,000  Level Salt Lake Center
04:43PM 40.5708 -114.4153 72° East 465 535 35,000  Level Salt Lake Center
04:44PM 40.6103 -114.2522 72° East 470 541 35,000  Level Salt Lake Center
04:45PM 40.6486 -114.0881 73° East 469 540 35,000  Level Salt Lake Center
04:46PM 40.6936 -113.9231 70° East 477 549 35,100  Climbing Salt Lake Center
04:47PM 40.7436 -113.7594 68° East 480 552 35,000 -60 Descending Salt Lake Center
04:48PM 40.7919 -113.5956 69° East 480 552 35,000  Level Salt Lake Center
04:49PM 40.8514 -113.3983 68° East 483 556 35,000  Level Salt Lake Center
04:50PM 40.8981 -113.2333 69° East 481 554 35,000  Level Salt Lake Center
04:51PM 40.9447 -113.0669 70° East 483 556 35,000  Level Salt Lake Center
04:52PM 40.9917 -112.9042 69° East 476 548 35,000  Level Salt Lake Center
04:53PM 41.0397 -112.7417 69° East 474 545 35,000  Level Salt Lake Center
04:54PM 41.0853 -112.5794 70° East 471 542 35,000  Level Salt Lake Center
04:55PM 41.1319 -112.4150 69° East 475 547 35,000  Level Salt Lake Center
04:56PM 41.1881 -112.2150 69° East 479 551 35,000  Level Salt Lake Center
04:57PM 41.2350 -112.0472 70° East 480 552 35,000  Level Salt Lake Center
04:58PM 41.2825 -111.8781 69° East 482 555 35,000  Level Salt Lake Center
04:59PM 41.3294 -111.7075 70° East 486 559 35,100  Climbing Salt Lake Center
05:01PM 41.3750 -111.5389 70° East 481 554 35,000 240 Descending Salt Lake Center
05:02PM 41.4203 -111.3725 70° East 478 550 35,600 480 Climbing Salt Lake Center
05:03PM 41.4639 -111.2078 70° East 472 543 36,000 180 Climbing Salt Lake Center
05:04PM 41.5089 -111.0414 70° East 475 547 36,000  Level Salt Lake Center
05:05PM 41.5575 -110.8547 71° East 477 549 36,000  Level Salt Lake Center
05:06PM 41.6008 -110.6947 70° East 478 550 36,000  Level Salt Lake Center
05:07PM 41.6503 -110.5075 70° East 479 551 36,000  Level Salt Lake Center
05:08PM 41.6933 -110.3442 71° East 485 558 36,000  Level Salt Lake Center
05:09PM 41.7414 -110.1544 71° East 483 556 36,000  Level Salt Lake Center
05:10PM 41.7836 -109.9917 71° East 483 556 36,000  Level Salt Lake Center
05:11PM 41.8264 -109.8258 71° East 488 562 36,000  Level Salt Lake Center
05:12PM 41.8747 -109.6344 71° East 486 559 36,000  Level Salt Lake Center
05:13PM 41.9158 -109.4697 71° East 485 558 36,000  Level Salt Lake Center
05:14PM 41.9633 -109.2792 71° East 481 554 36,000  Level Salt Lake Center
05:15PM 42.0042 -109.1158 71° East 480 552 36,000  Level Salt Lake Center
05:16PM 42.0442 -108.9514 72° East 481 554 36,000  Level Salt Lake Center
05:17PM 42.0917 -108.7597 71° East 482 555 36,000  Level Salt Lake Center
05:18PM 42.1322 -108.5964 71° East 481 554 36,000  Level Salt Lake Center
05:19PM 42.1769 -108.4042 73° East 481 554 36,000 180 Level Salt Lake Center
05:20PM 42.2150 -108.2406 73° East 477 549 36,400 420 Climbing Salt Lake Center
05:21PM 42.2603 -108.0481 72° East 481 554 36,900 240 Climbing Salt Lake Center
05:22PM 42.2981 -107.8847 73° East 478 550 37,000  Climbing Salt Lake Center
05:23PM 42.3378 -107.7181 72° East 486 559 37,000  Level Salt Lake Center
05:24PM 42.3864 -107.5247 71° East 486 559 37,000  Level Salt Lake Center
05:25PM 42.4217 -107.3581 74° East 484 557 37,000  Level Salt Lake Center
05:26PM 42.4667 -107.1644 72° East 483 556 37,000  Level Salt Lake Center
05:27PM 42.5042 -106.9922 73° East 493 567 37,000  Level Denver Center
05:28PM 42.5436 -106.8081 74° East 487 560 37,000  Level Denver Center
05:29PM 42.5883 -106.6122 73° East 487 560 37,000  Level Denver Center
05:30PM 42.6256 -106.4408 74° East 493 567 37,000  Level Denver Center
05:31PM 42.6636 -106.2675 73° East 500 575 37,000  Level Denver Center
05:32PM 42.7067 -106.0636 74° East 502 578 37,000  Level Denver Center
05:33PM 42.7428 -105.8892 74° East 501 577 37,000  Level Denver Center
05:34PM 42.7858 -105.6842 74° East 506 582 37,000  Level Denver Center
05:36PM 42.8233 -105.5100 74° East 501 577 37,000  Level Denver Center
05:37PM 42.8658 -105.3047 74° East 500 575 37,000  Level Denver Center
05:38PM 42.9022 -105.1311 74° East 498 573 37,000  Level Denver Center
05:39PM 42.9372 -104.9575 75° East 494 568 37,000  Level Denver Center
05:40PM 42.9794 -104.7511 74° East 501 577 37,000  Level Denver Center
05:41PM 43.0153 -104.5728 75° East 504 580 37,100  Climbing Denver Center
05:42PM 43.0567 -104.3639 75° East 506 582 37,100 -60 Level Denver Center
05:43PM 43.0917 -104.1853 75° East 505 581 37,000 -60 Descending Denver Center
05:44PM 43.1308 -103.9794 75° East 502 578 37,000  Level Denver Center
05:45PM 43.1656 -103.8008 75° East 503 579 37,000  Level Denver Center
05:46PM 43.1994 -103.6233 75° East 504 580 37,000  Level Denver Center
05:47PM 43.2386 -103.4139 76° East 507 583 37,100  Climbing Denver Center
05:48PM 43.2739 -103.2339 75° East 510 587 37,000 -60 Descending Denver Center
05:49PM 43.3108 -103.0275 76° East 501 577 37,000  Level Denver Center
05:50PM 43.3433 -102.8494 76° East 504 580 37,000  Level Denver Center
05:51PM 43.3814 -102.6439 76° East 498 573 37,000  Level Denver Center
05:52PM 43.4119 -102.4650 77° East 503 579 37,000  Level Denver Center
05:53PM 43.4486 -102.2575 76° East 501 577 37,000  Level Denver Center
05:54PM 43.4811 -102.0758 76° East 502 578 37,000  Level Denver Center
05:55PM 43.5136 -101.8869 77° East 507 583 37,000  Level Denver Center
05:56PM 43.5467 -101.6978 76° East 508 585 37,000  Level Denver Center
05:57PM 43.5783 -101.5064 77° East 513 590 37,000  Level Denver Center
05:58PM 43.6106 -101.3136 77° East 517 595 37,000  Level Denver Center
05:59PM 43.6436 -101.1222 77° East 519 597 37,000  Level Minneapolis Center
06:00PM 43.6758 -100.9264 77° East 524 603 37,000  Level Minneapolis Center
06:01PM 43.7075 -100.7303 77° East 525 604 37,000  Level Minneapolis Center
06:02PM 43.7392 -100.5381 77° East 519 597 37,000  Level Minneapolis Center
06:03PM 43.7689 -100.3464 78° East 515 593 37,000  Level Minneapolis Center
06:04PM 43.8000 -100.1539 77° East 516 594 37,000  Level Minneapolis Center
06:05PM 43.8289 -99.9619 78° East 513 590 37,000  Level Minneapolis Center
06:06PM 43.8650 -99.7303 78° East 515 593 37,000  Level Minneapolis Center
06:07PM 43.8931 -99.5392 78° East 511 588 37,000  Level Minneapolis Center
06:08PM 43.9225 -99.3475 78° East 511 588 37,000  Level Minneapolis Center
06:09PM 43.9503 -99.1586 78° East 505 581 37,000  Level Minneapolis Center
06:10PM 43.9778 -98.9678 79° East 506 582 37,000  Level Minneapolis Center
06:11PM 44.0056 -98.7761 79° East 508 585 37,000  Level Minneapolis Center
06:12PM 44.0378 -98.5511 79° East 509 586 37,000  Level Minneapolis Center
06:13PM 44.0644 -98.3606 79° East 506 582 37,000  Level Minneapolis Center
06:14PM 44.0900 -98.1681 79° East 507 583 37,000  Level Minneapolis Center
06:16PM 44.1178 -97.9747 79° East 509 586 37,000  Level Minneapolis Center
06:17PM 44.1444 -97.7819 79° East 509 586 37,000  Level Minneapolis Center
06:18PM 44.1692 -97.5886 80° East 509 586 37,000  Level Minneapolis Center
06:19PM 44.2178 -97.3681 73° East 495 570 37,000  Level Minneapolis Center
06:20PM 44.3083 -97.2353 46° Northeast 469 540 37,000  Level Minneapolis Center
06:21PM 44.4017 -97.1056 45° Northeast 471 542 37,000  Level Minneapolis Center
06:22PM 44.4950 -96.9750 45° Northeast 473 544 37,000  Level Minneapolis Center
06:23PM 44.5506 -96.8036 65° Northeast 494 568 37,000 -480 Level Minneapolis Center
06:24PM 44.5444 -96.6069 92° East 502 578 36,100 -900 Descending Minneapolis Center
06:25PM 44.5358 -96.4075 93° East 507 583 35,200 -960 Descending Minneapolis Center
06:26PM 44.5258 -96.2039 94° East 517 595 34,200 -1,020 Descending Minneapolis Center
06:27PM 44.5161 -95.9997 94° East 519 597 33,200 -1,440 Descending Minneapolis Center
06:28PM 44.5031 -95.7536 94° East 524 603 31,300 -2,040 Descending Minneapolis Center
06:29PM 44.4919 -95.5550 94° East 514 592 29,000 -2,220 Descending Minneapolis Center
06:30PM 44.4811 -95.3653 95° East 495 570 26,800 -2,100 Descending Minneapolis Center
06:31PM 44.4694 -95.1828 95° East 476 548 24,700 -2,040 Descending Minneapolis Center
06:32PM 44.4942 -95.0122 78° East 453 521 22,700 -1,920 Descending Minneapolis Center
06:33PM 44.5344 -94.8497 71° East 444 511 20,800 -2,280 Descending Minneapolis Center
06:34PM 44.5756 -94.6642 73° East 424 488 18,000 -2,340 Descending Minneapolis Center
06:35PM 44.6053 -94.5419 71° East 403 464 16,000 -2,280 Descending Minneapolis Center
06:36PM 44.6453 -94.3683 72° East 394 453 13,400 -2,280 Descending Minneapolis Center
06:37PM 44.6772 -94.2283 72° East 379 436 11,300 -1,200 Descending Minneapolis Center
06:38PM 44.7081 -94.0897 73° East 371 427 11,000 -180 Descending Minneapolis Center
06:39PM 44.7386 -93.9531 72° East 367 422 11,000  Level Minneapolis Center
06:40PM 44.7694 -93.8164 72° East 368 423 11,000  Level Minneapolis Center
06:41PM 44.7992 -93.6797 73° East 365 420 11,000 -540 Level Minneapolis Center
06:42PM 44.8331 -93.5253 73° East 337 388 10,000 -1,380 Descending Minneapolis Center
06:43PM 44.8581 -93.4136 72° East 302 348 8,200 -1,020 Descending Minneapolis Center
06:44PM 44.8358 -93.3222 109° East 271 312 7,900 -840 Descending Minneapolis Center
06:45PM 44.7683 -93.3047 170° South 254 292 6,500 -1,440 Descending Minneapolis Center
06:46PM 44.7011 -93.2822 167° South 217 250 5,000 -1,260 Descending Minneapolis Center
06:48PM 44.7128 -93.2219 75° East 203 234 4,000 -1,020 Descending Minneapolis Center